• Join FlightAware (Why Join?)
  • Login
  • US Flag 
10:17AM EDT


 

Airport Tracker/Info


-or-


 

Live Flight TrackerFlight Track Log ✈ UAL1177 ✈ 16-May-2013 ✈ KDEN - KPDX

Flight Track Log - Related Links

Times and Time Zones

All times are in EDT time to prevent confusion due to time zone crossing. See the UAL1177 flight status page for this flight to view local times or setup timezone preferences in your user account.

Time Position Orientation Groundspeed Altitude Reporting Facility
EDT Latitude Longitude Course Direction KTS MPH feet Rate Location/Type
10:34PM 39.8934 -104.6870 360° North 188 216 5,600  Level FlightAware ADS-B
10:34PM 39.9080 -104.6860 North 195 224 6,100 1,800 Climbing FlightAware ADS-B
10:34PM 39.9137 -104.6860 360° North 201 231 6,300 1,800 Climbing FlightAware ADS-B
10:34PM 39.9172 -104.6870 348° North 205 236 6,400 2,160 Climbing FlightAware ADS-B
10:34PM 39.9243 -104.6880 354° North 209 241 6,700 1,980 Climbing FlightAware ADS-B
10:34PM 39.9281 -104.6880 360° North 209 241 6,800 1,680 Climbing FlightAware ADS-B
10:34PM 39.9311 -104.6870 14° North 210 242 6,900 1,500 Climbing FlightAware ADS-B
10:34PM 39.9360 -104.6870 360° North 215 247 7,000 1,500 Climbing FlightAware ADS-B
10:35PM 39.9513 -104.6830 11° North 226 260 7,400 1,380 Climbing FlightAware ADS-B
10:35PM 39.9680 -104.6800 North 244 281 7,700 1,560 Climbing FlightAware ADS-B
10:35PM 39.9798 -104.6770 11° North 248 285 8,100 2,580 Climbing FlightAware ADS-B
10:35PM 39.9936 -104.6740 North 246 283 8,700 1,980 Climbing FlightAware ADS-B
10:36PM 40.0113 -104.6690 12° North 264 304 9,000 1,200 Climbing FlightAware ADS-B
10:36PM 40.0305 -104.6650 North 284 327 9,300 1,560 Climbing FlightAware ADS-B
10:36PM 40.0502 -104.6600 11° North 295 339 9,800 1,380 Climbing FlightAware ADS-B
10:36PM 40.0822 -104.6520 11° North 302 348 10,200 1,080 Climbing FlightAware ADS-B
10:36PM 40.0874 -104.6520 360° North 300 345 10,300 1,680 Climbing FlightAware ADS-B
10:37PM 40.0925 -104.6530 351° North 299 344 10,400 1,680 Climbing FlightAware ADS-B
10:37PM 40.1063 -104.6580 345° North 305 351 10,700 1,500 Climbing FlightAware ADS-B
10:37PM 40.1142 -104.6620 339° North 311 358 10,800 1,440 Climbing FlightAware ADS-B
10:37PM 40.1561 -104.6890 334° Northwest 336 387 11,600 1,980 Climbing FlightAware ADS-B
10:38PM 40.1997 -104.7160 335° Northwest 346 398 12,900 3,000 Climbing FlightAware ADS-B
10:38PM 40.2437 -104.7430 335° Northwest 342 394 14,700 3,420 Climbing FlightAware ADS-B
10:39PM 40.2869 -104.7700 335° Northwest 339 390 16,400 2,940 Climbing FlightAware ADS-B
10:39PM 40.3303 -104.7970 335° Northwest 344 396 17,700 2,520 Climbing FlightAware ADS-B
10:40PM 40.3465 -104.8090 331° Northwest 347 399 18,200 2,220 Climbing FlightAware ADS-B
10:40PM 40.3947 -104.8550 324° Northwest 355 409 19,500 2,220 Climbing FlightAware ADS-B
10:41PM 40.4369 -104.8950 324° Northwest 364 419 20,700 2,280 Climbing FlightAware ADS-B
10:41PM 40.4772 -104.9320 325° Northwest 367 422 21,800 2,040 Climbing FlightAware ADS-B
10:42PM 40.5259 -104.9760 326° Northwest 371 427 22,900 1,740 Climbing FlightAware ADS-B
10:42PM 40.5691 -105.0150 326° Northwest 378 435 23,700 1,380 Climbing FlightAware ADS-B
10:43PM 40.6129 -105.0550 325° Northwest 389 448 24,300 1,200 Climbing FlightAware ADS-B
10:43PM 40.6637 -105.1010 326° Northwest 402 463 25,000 1,560 Climbing FlightAware ADS-B
10:44PM 40.7215 -105.1530 326° Northwest 405 466 26,200 1,680 Climbing FlightAware ADS-B
10:45PM 40.7920 -105.2180 325° Northwest 408 470 27,400 1,200 Climbing FlightAware
10:45PM 40.8610 -105.2810 325° Northwest 418 481 28,100 960 Climbing FlightAware
10:46PM 40.9100 -105.3510 313° West 417 480 28,800 1,080 Climbing FlightAware
10:47PM 40.9470 -105.4580 295° West 422 486 29,700 1,200 Climbing FlightAware
10:48PM 40.9800 -105.5550 294° West 425 489 30,500 1,200 Climbing FlightAware
10:48PM 41.0160 -105.6620 294° West 427 491 31,400 1,080 Climbing FlightAware
10:49PM 41.0490 -105.7580 295° West 431 496 32,100 1,080 Climbing FlightAware
10:50PM 41.0860 -105.8680 294° West 430 495 33,000 1,080 Climbing FlightAware
10:50PM 41.1180 -105.9640 294° West 431 496 33,700 1,080 Climbing FlightAware
10:51PM 41.1510 -106.0610 294° West 429 494 34,500 780 Climbing FlightAware
10:52PM 41.1860 -106.1690 293° West 427 491 34,900 240 Climbing FlightAware
10:53PM 41.2190 -106.2720 293° West 427 491 34,900  Level FlightAware
10:53PM 41.2450 -106.3540 293° West 427 491 34,900 720 Level FlightAware
10:54PM 41.2960 -106.5010 295° West 415 478 36,000 660 Climbing FlightAware
10:55PM 41.3270 -106.6010 292° West 415 478 36,000  Level FlightAware
10:56PM 41.3530 -106.6810 293° West 415 478 36,000  Level FlightAware
10:56PM 41.3780 -106.7610 293° West 415 478 36,000  Level FlightAware
10:57PM 41.4040 -106.8410 293° West 415 478 36,000  Level FlightAware
10:58PM 41.4290 -106.9210 293° West 415 478 36,000  Level FlightAware
10:59PM 41.4610 -107.0210 293° West 415 478 36,000  Level FlightAware
10:59PM 41.4870 -107.1010 293° West 415 478 36,000  Level FlightAware
11:00PM 41.5120 -107.1820 292° West 415 478 36,000  Level FlightAware
11:01PM 41.5380 -107.2620 293° West 415 478 36,000  Level FlightAware
11:01PM 41.5630 -107.3420 293° West 415 478 36,000  Level FlightAware
11:02PM 41.5950 -107.4430 293° West 415 478 36,000  Level FlightAware
11:03PM 41.6210 -107.5230 294° West 415 478 36,000  Level FlightAware
11:03PM 41.6460 -107.6030 293° West 415 478 36,000  Level FlightAware
11:04PM 41.7403 -107.8883 293° West 415 478 36,000  Level Salt Lake Center
11:04PM 41.7467 -107.9097 292° West 412 474 36,000  Level Denver Center
11:05PM 41.7947 -108.0664 292° West 410 472 36,000  Level Denver Center
11:06PM 41.8272 -108.1772 292° West 402 463 36,000  Level Salt Lake Center
11:07PM 41.8694 -108.3108 293° West 406 467 36,000  Level Salt Lake Center
11:08PM 41.9192 -108.4697 293° West 413 475 36,000  Level Salt Lake Center
11:09PM 41.9600 -108.6039 292° West 410 472 36,000  Level Salt Lake Center
11:10PM 42.0003 -108.7394 292° West 410 472 36,000  Level Salt Lake Center
11:11PM 42.0472 -108.8975 292° West 409 471 36,000  Level Salt Lake Center
11:12PM 42.0875 -109.0317 292° West 408 470 36,000  Level Salt Lake Center
11:13PM 42.1350 -109.1914 292° West 411 473 36,000  Level Salt Lake Center
11:14PM 42.1744 -109.3264 292° West 408 470 36,000  Level Salt Lake Center
11:15PM 42.2203 -109.4842 291° West 407 468 36,000  Level Salt Lake Center
11:16PM 42.2589 -109.6161 292° West 398 458 36,000  Level Salt Lake Center
11:17PM 42.2975 -109.7508 291° West 401 461 36,000  Level Salt Lake Center
11:18PM 42.3422 -109.9058 291° West 398 458 36,000  Level Salt Lake Center
11:20PM 42.3817 -110.0411 292° West 403 464 36,000  Level Salt Lake Center
11:21PM 42.4264 -110.2008 291° West 407 468 36,000  Level Salt Lake Center
11:22PM 42.4664 -110.3375 292° West 408 470 36,000  Level Salt Lake Center
11:23PM 42.5042 -110.4742 291° West 407 468 36,000  Level Salt Lake Center
11:24PM 42.5492 -110.6328 291° West 404 465 36,000  Level Salt Lake Center
11:25PM 42.5872 -110.7692 291° West 405 466 36,000  Level Salt Lake Center
11:26PM 42.6308 -110.9289 290° West 404 465 36,000  Level Salt Lake Center
11:27PM 42.6678 -111.0600 291° West 407 468 36,000  Level Salt Lake Center
11:28PM 42.7103 -111.2164 290° West 406 467 36,000  Level Salt Lake Center
11:29PM 42.7531 -111.3706 291° West 406 467 36,000  Level Salt Lake Center
11:30PM 42.7900 -111.5092 290° West 407 468 36,000  Level Salt Lake Center
11:31PM 42.8278 -111.6472 291° West 407 468 36,000  Level Salt Lake Center
11:32PM 42.8714 -111.8097 290° West 410 472 36,000  Level Salt Lake Center
11:33PM 42.9092 -111.9500 290° West 411 473 36,000  Level Salt Lake Center
11:34PM 42.9456 -112.0889 290° West 408 470 36,000  Level Salt Lake Center
11:35PM 42.9883 -112.2506 290° West 406 467 36,000  Level Salt Lake Center
11:36PM 43.0283 -112.4061 289° West 403 464 36,000  Level Salt Lake Center
11:38PM 43.1052 -112.6391 294° West  Level FlightAware Approximate
11:40PM 43.1836 -113.0069 288° West 400 460 36,000  Level Salt Lake Center
11:41PM 43.2183 -113.1456 289° West 401 461 36,000  Level Salt Lake Center
11:42PM 43.2592 -113.3078 289° West 403 464 36,000  Level Salt Lake Center
11:43PM 43.2939 -113.4469 289° West 402 463 36,000  Level Salt Lake Center
11:44PM 43.3339 -113.6086 289° West 400 460 36,000  Level Salt Lake Center
11:45PM 43.4160 -113.6395 288° West  Level FlightAware Approximate
11:45PM 43.3675 -113.7458 289° West 397 457 36,000  Level Salt Lake Center
11:46PM 43.4008 -113.8892 288° West 402 463 36,000  Level Salt Lake Center
11:47PM 43.4364 -114.0272 290° West 399 459 36,000  Level Salt Lake Center
11:48PM 43.4750 -114.1892 288° West 402 463 36,000  Level Salt Lake Center
11:49PM 43.5083 -114.3281 288° West 400 460 36,000  Level Salt Lake Center
11:50PM 43.5481 -114.4925 288° West 402 463 36,000  Level Salt Lake Center
11:51PM 43.5811 -114.6342 288° West 403 464 36,000  Level Salt Lake Center
11:52PM 43.6256 -114.7728 294° West 410 472 36,000  Level Salt Lake Center
11:53PM 43.6772 -114.9364 294° West 416 479 36,000  Level Salt Lake Center
11:54PM 43.7217 -115.0764 294° West 417 480 36,000  Level Salt Lake Center
11:55PM 43.7650 -115.2169 293° West 413 475 36,000  Level Salt Lake Center
11:56PM 43.8161 -115.3811 293° West 415 478 36,000  Level Salt Lake Center
11:57PM 43.8606 -115.5242 293° West 420 483 36,000  Level Salt Lake Center
11:59PM 43.9122 -115.6886 294° West 416 479 36,000  Level Salt Lake Center
12:00AM 43.9550 -115.8317 293° West 418 481 36,000  Level Salt Lake Center
12:01AM 43.9989 -115.9750 293° West 418 481 36,000  Level Salt Lake Center
12:02AM 44.0500 -116.1442 293° West 421 484 36,000  Level Salt Lake Center
12:03AM 44.0933 -116.2906 292° West 425 489 36,000  Level Salt Lake Center
12:04AM 44.1381 -116.4375 293° West 428 493 36,000  Level Salt Lake Center
12:05AM 44.1881 -116.6081 292° West 423 487 36,000  Level Salt Lake Center
12:06AM 44.2317 -116.7575 292° West 430 495 36,000  Level Salt Lake Center
12:07AM 44.2753 -116.9078 292° West 434 499 36,000  Level Salt Lake Center
12:08AM 44.3269 -117.0817 293° West 434 499 36,000  Level Salt Lake Center
12:09AM 44.3708 -117.2328 292° West 436 502 36,000  Level Salt Lake Center
12:10AM 44.4139 -117.3839 292° West 435 501 36,000  Level Salt Lake Center
12:11AM 44.4644 -117.5592 292° West 434 499 36,000  Level Salt Lake Center
12:12AM 44.5069 -117.7103 292° West 436 502 36,000  Level Salt Lake Center
12:13AM 44.5497 -117.8603 292° West 434 499 36,000  Level Salt Lake Center
12:14AM 44.5989 -118.0350 292° West 430 495 36,000  Level Salt Lake Center
12:15AM 44.6436 -118.1931 292° West 431 496 36,000  Level Salt Lake Center
12:16AM 44.6856 -118.3506 291° West 432 497 36,000  Level Salt Lake Center
12:16AM 44.6942 -118.3819 291° West 434 499 36,000  Level Seattle Center
12:17AM 44.7469 -118.5725 291° West 437 503 36,000  Level Seattle Center
12:18AM 44.7911 -118.7294 292° West 435 501 36,000  Level Seattle Center
12:19AM 44.8339 -118.8878 291° West 435 501 36,000  Level Seattle Center
12:20AM 44.8761 -119.0447 291° West 432 497 36,000  Level Seattle Center
12:21AM 44.9186 -119.2033 291° West 433 498 36,000 -60 Level Seattle Center
12:27AM 45.1670 -120.1580 291° West 429 494 35,700 -60 Descending FlightAware
12:28AM 45.1930 -120.2620 290° West 429 494 35,700  Level FlightAware
12:29AM 45.2150 -120.3530 289° West 429 494 35,700  Level FlightAware
12:29AM 45.2360 -120.4430 288° West 429 494 35,700  Level FlightAware
12:30AM 45.2580 -120.5340 289° West 429 494 35,700  Level FlightAware
12:31AM 45.2800 -120.6250 289° West 429 494 35,700  Level FlightAware
12:31AM 45.3020 -120.7150 289° West 429 494 35,700  Level FlightAware
12:32AM 45.3300 -120.8290 289° West 429 494 35,700  Level FlightAware
12:33AM 45.3520 -120.9190 289° West 429 494 35,700  Level FlightAware
12:33AM 45.3740 -121.0100 289° West 429 494 35,700  Level FlightAware
12:34AM 45.3960 -121.1010 289° West 429 494 35,700  Level FlightAware
12:35AM 45.4180 -121.1920 289° West 429 494 35,700  Level FlightAware
12:36AM 45.4450 -121.3060 289° West 429 494 35,700  Level FlightAware
12:36AM 45.4670 -121.3970 289° West 429 494 35,700  Level FlightAware
12:37AM 45.4890 -121.4880 289° West 429 494 35,700 -20,100 Level FlightAware
12:37AM 45.4831 -121.6589 289° West 341 392 13,300 -20,520 Descending Seattle Center
12:38AM 45.4958 -121.7617 280° West 316 364 12,500 -1,140 Descending Seattle Center
12:38AM 45.4975 -121.7822 277° West 320 368 12,200 -1,620 Descending Seattle Center
12:39AM 45.4908 -121.8719 264° West 283 326 10,900 -1,800 Descending Seattle Center
12:39AM 45.4808 -121.8883 229° Southwest 295 339 10,400 -1,920 Descending Seattle Center
12:40AM 45.4456 -121.9681 238° Southwest 290 334 9,000 -1,680 Descending Seattle Center
12:40AM 45.4414 -121.9806 245° Southwest 287 330 8,700 -840 Descending Seattle Center
12:41AM 45.4200 -122.0650 250° West 261 300 8,200 -720 Descending Seattle Center
12:41AM 45.4247 -122.0758 302° West 253 291 8,000 -1,320 Descending Seattle Center
12:42AM 45.4436 -122.1478 291° West 221 254 6,900 -1,920 Descending Seattle Center
12:42AM 45.4531 -122.1781 294° West 235 270 6,100 -1,800 Descending Seattle Center
12:43AM 45.4675 -122.2428 288° West 218 251 4,900 -1,200 Descending Seattle Center
12:44AM 45.4858 -122.3214 288° West 208 239 4,000 -900 Descending Seattle Center
12:45AM 45.5108 -122.3792 302° West 165 190 3,100 -900 Descending Seattle Center
12:46AM 45.5303 -122.4328 297° West 153 176 2,200 -900 Descending Seattle Center
12:47AM 45.5536 -122.4942 299° West 151 174 1,300 -900 Descending Seattle Center
12:48AM 45.5753 -122.5469 300° West 154 177 400 -600 Descending Seattle Center
12:50AM 45.5967 -122.6019 299° West 153 176 100 -300 Descending Seattle Center